SNQ weather

San Joaquin Aitport
Cajeme, Sonora, Mexico

Public forecast

Using degrees Celsius for public forecast. Weather courtesy of forecast.io.

METAR (pilot weather report)

Closest report is Ciudad Obregón International Airport, 7.5 nm (13.9 km) ENE. Retrieved 2019/06/15 18:43 UTC (1 hour ago):

MMCN 151843Z 14013KT 10SM SKC 35/15 A2985 RMK HZY

TAF (pilot weather forecast)

Closest forecast is Ciudad Obregón International Airport, 7.5 nm (13.9 km) ENE. Retrieved 2019/06/15 18:59 UTC (58 minutes ago):

TAF MMCN 151652Z 1518/1618 17010KT P6SM SKC BECMG 1520/1521 21015KT FM160200 21005KT P6SM SKC BECMG 1605/1606 00000KT FM161200 00000KT 6SM HZ SCT015 FM161600 16006KT P6SM SKC